createdAt,value
2022-08-14T00:01:32.968Z,78.03
2022-08-14T00:04:31.856Z,77.53
2022-08-14T00:07:21.036Z,78.72
2022-08-14T00:10:49.954Z,78.53
2022-08-14T00:13:23.489Z,79.15
2022-08-14T00:16:40.992Z,78.78
2022-08-14T00:19:24.618Z,79.07
2022-08-14T00:22:44.239Z,78.80
2022-08-14T00:25:41.503Z,79.35
2022-08-14T00:28:34.990Z,78.88
2022-08-14T00:31:35.057Z,78.05
2022-08-14T00:34:37.817Z,78.45
2022-08-14T00:37:35.988Z,78.28
2022-08-14T00:40:33.535Z,78.72
2022-08-14T00:43:24.218Z,77.35
2022-08-14T00:46:32.317Z,77.95
2022-08-14T00:49:21.576Z,78.28
2022-08-14T00:52:14.039Z,78.18
2022-08-14T00:55:08.159Z,79.53
2022-08-14T00:58:10.682Z,80.07
2022-08-14T01:00:59.696Z,80.90
2022-08-14T01:03:52.985Z,80.63
2022-08-14T01:06:42.451Z,81.13
2022-08-14T01:09:33.467Z,81.57
2022-08-14T01:12:27.193Z,81.78
2022-08-14T01:15:31.638Z,83.25
2022-08-14T01:19:01.026Z,83.47
2022-08-14T01:21:53.268Z,84.72
2022-08-14T01:24:43.367Z,85.97
2022-08-14T01:27:31.897Z,86.43
2022-08-14T01:30:42.172Z,87.68
2022-08-14T01:33:59.248Z,87.82
2022-08-14T01:36:41.178Z,89.85
2022-08-14T01:39:33.590Z,89.13
2022-08-14T01:42:31.081Z,90.68
2022-08-14T01:45:25.598Z,88.95
2022-08-14T01:48:16.246Z,88.72
2022-08-14T01:51:19.008Z,91.20
2022-08-14T01:54:14.278Z,91.25
2022-08-14T01:57:04.324Z,89.82
2022-08-14T01:59:57.704Z,91.13
2022-08-14T02:02:46.807Z,90.18
2022-08-14T02:05:38.347Z,89.55
2022-08-14T02:08:35.308Z,89.88
2022-08-14T02:11:24.842Z,90.50
2022-08-14T02:14:15.797Z,91.18
2022-08-14T02:17:23.265Z,91.00
2022-08-14T02:20:14.050Z,89.75
2022-08-14T02:23:02.786Z,91.25
2022-08-14T02:25:54.630Z,91.10
2022-08-14T02:28:58.528Z,91.20
2022-08-14T02:31:51.709Z,89.28
2022-08-14T02:34:41.427Z,89.93
2022-08-14T02:37:47.680Z,89.20
2022-08-14T02:40:38.112Z,89.28
2022-08-14T02:43:36.453Z,90.45
2022-08-14T02:46:32.043Z,88.93
2022-08-14T02:49:33.060Z,89.30
2022-08-14T02:52:55.535Z,87.18
2022-08-14T02:55:33.128Z,88.55
2022-08-14T02:58:30.599Z,88.78
2022-08-14T03:01:22.278Z,88.32
2022-08-14T03:04:13.269Z,88.47
2022-08-14T03:07:07.487Z,88.22
2022-08-14T03:10:25.370Z,87.70
2022-08-14T03:13:06.324Z,86.75
2022-08-14T03:16:02.790Z,87.28
2022-08-14T03:18:59.747Z,86.95
2022-08-14T03:21:53.021Z,87.05
2022-08-14T03:24:42.861Z,87.30
2022-08-14T03:27:35.171Z,85.72
2022-08-14T03:30:40.945Z,86.60
2022-08-14T03:33:37.469Z,86.93
2022-08-14T03:37:39.394Z,86.45
2022-08-14T03:39:36.259Z,88.53
2022-08-14T03:42:35.695Z,87.10
2022-08-14T03:45:35.466Z,88.90
2022-08-14T03:48:30.627Z,88.05
2022-08-14T03:51:19.812Z,86.85
2022-08-14T03:54:09.441Z,87.90
2022-08-14T03:57:05.472Z,88.65
2022-08-14T03:59:55.194Z,88.68
2022-08-14T04:02:46.770Z,88.15
2022-08-14T04:05:43.461Z,88.72
2022-08-14T04:08:38.371Z,89.40
2022-08-14T04:11:30.356Z,90.55
2022-08-14T04:14:18.892Z,88.35
2022-08-14T04:17:09.908Z,88.88
2022-08-14T04:20:05.459Z,89.43
2022-08-14T04:22:54.712Z,90.03
2022-08-14T04:25:44.375Z,89.47
2022-08-14T04:29:08.010Z,87.38
2022-08-14T04:33:02.396Z,87.78
2022-08-14T04:34:55.810Z,88.97
2022-08-14T04:38:01.599Z,85.53
2022-08-14T04:41:14.029Z,86.68
2022-08-14T04:44:02.585Z,83.80
2022-08-14T04:47:09.547Z,81.30
2022-08-14T04:50:00.292Z,80.75
2022-08-14T04:52:53.977Z,81.38
2022-08-14T04:55:51.395Z,80.00
2022-08-14T04:58:40.581Z,80.10
2022-08-14T05:01:29.510Z,75.22
2022-08-14T05:04:28.143Z,74.53
2022-08-14T05:07:18.006Z,73.85
2022-08-14T05:10:32.123Z,73.75
2022-08-14T05:13:24.587Z,71.38
2022-08-14T05:16:18.494Z,68.57
2022-08-14T05:19:24.944Z,65.45
2022-08-14T05:22:19.176Z,63.97
2022-08-14T05:25:08.535Z,63.45
2022-08-14T05:28:00.659Z,62.83
2022-08-14T05:30:50.754Z,60.28
2022-08-14T05:33:40.396Z,59.22
2022-08-14T05:36:28.974Z,56.55
2022-08-14T05:39:20.224Z,56.03
2022-08-14T05:42:09.962Z,54.40
2022-08-14T05:45:11.219Z,52.95
2022-08-14T05:48:02.379Z,52.42
2022-08-14T05:50:51.236Z,51.45
2022-08-14T05:53:42.375Z,48.75
2022-08-14T05:56:32.464Z,46.55
2022-08-14T05:59:20.968Z,44.95
2022-08-14T06:02:25.391Z,45.28
2022-08-14T06:05:14.018Z,42.33
2022-08-14T06:08:08.795Z,41.17
2022-08-14T06:11:14.880Z,39.10
2022-08-14T06:14:12.316Z,37.63
2022-08-14T06:17:09.611Z,36.70
2022-08-14T06:20:05.116Z,36.42
2022-08-14T06:22:59.676Z,34.83
2022-08-14T06:25:52.596Z,32.50
2022-08-14T06:28:45.448Z,31.77
2022-08-14T06:31:35.446Z,31.13
2022-08-14T06:35:04.522Z,30.75
2022-08-14T06:37:41.381Z,30.65
2022-08-14T06:40:34.217Z,30.67
2022-08-14T06:43:27.062Z,29.98
2022-08-14T06:46:23.051Z,29.92
2022-08-14T06:49:22.438Z,29.58
2022-08-14T06:52:15.116Z,28.92
2022-08-14T06:55:04.650Z,27.58
2022-08-14T06:57:53.396Z,27.83
2022-08-14T07:01:02.386Z,26.20
2022-08-14T07:04:18.845Z,23.83
2022-08-14T07:07:13.244Z,23.33
2022-08-14T07:10:01.647Z,21.27
2022-08-14T07:12:56.287Z,19.92
2022-08-14T07:15:55.327Z,18.95
2022-08-14T07:18:43.849Z,17.60
2022-08-14T07:21:33.428Z,17.15
2022-08-14T07:24:30.987Z,16.00
2022-08-14T07:27:20.170Z,14.88
2022-08-14T07:30:33.944Z,15.07
2022-08-14T07:33:24.726Z,14.82
2022-08-14T07:36:29.961Z,14.50
2022-08-14T07:39:19.403Z,14.80
2022-08-14T07:42:20.027Z,14.60
2022-08-14T07:45:12.171Z,14.35
2022-08-14T07:48:00.567Z,14.30
2022-08-14T07:50:50.842Z,14.35
2022-08-14T07:53:41.137Z,14.27
2022-08-14T07:56:44.274Z,13.80
2022-08-14T07:59:41.126Z,13.82
2022-08-14T08:02:32.938Z,13.55
2022-08-14T08:05:24.442Z,14.20
2022-08-14T08:08:27.013Z,14.90
2022-08-14T08:11:19.477Z,15.40
2022-08-14T08:14:17.607Z,17.30
2022-08-14T08:17:07.951Z,16.65
2022-08-14T08:19:57.415Z,16.83
2022-08-14T08:22:48.336Z,16.13
2022-08-14T08:25:41.439Z,14.60
2022-08-14T08:28:31.525Z,14.70
2022-08-14T08:31:23.134Z,16.00
2022-08-14T08:34:23.607Z,16.52
2022-08-14T08:37:12.885Z,17.73
2022-08-14T08:40:03.822Z,17.10
2022-08-14T08:42:53.365Z,16.27
2022-08-14T08:45:45.658Z,17.70
2022-08-14T08:48:50.466Z,17.38
2022-08-14T08:51:43.784Z,16.65
2022-08-14T08:54:32.056Z,15.70
2022-08-14T08:57:21.531Z,15.75
2022-08-14T09:00:25.172Z,14.27
2022-08-14T09:03:17.330Z,13.40
2022-08-14T09:06:54.022Z,12.40
2022-08-14T09:09:23.077Z,14.15
2022-08-14T09:12:13.996Z,15.20
2022-08-14T09:15:11.527Z,14.10
2022-08-14T09:18:02.207Z,14.18
2022-08-14T09:20:52.983Z,12.95
2022-08-14T09:24:25.985Z,12.98
2022-08-14T09:26:57.659Z,12.73
2022-08-14T09:29:54.221Z,13.07
2022-08-14T09:32:59.464Z,12.20
2022-08-14T09:36:02.928Z,12.73
2022-08-14T09:38:59.999Z,12.38
2022-08-14T09:42:21.988Z,12.32
2022-08-14T09:45:24.124Z,11.82
2022-08-14T09:48:17.554Z,11.98
2022-08-14T09:51:09.792Z,11.93
2022-08-14T09:54:19.165Z,9.68
2022-08-14T09:57:27.676Z,9.32
2022-08-14T10:00:28.334Z,8.70
2022-08-14T10:03:34.751Z,7.22
2022-08-14T10:06:28.138Z,7.20
2022-08-14T10:09:17.085Z,7.80
2022-08-14T10:12:13.298Z,7.68
2022-08-14T10:15:20.874Z,6.97
2022-08-14T10:18:17.266Z,7.50
2022-08-14T10:21:09.671Z,6.60
2022-08-14T10:23:58.282Z,6.70
2022-08-14T10:27:00.176Z,6.10
2022-08-14T10:29:51.184Z,7.28
2022-08-14T10:32:51.837Z,6.95
2022-08-14T10:35:47.907Z,7.03
2022-08-14T10:38:38.283Z,8.10
2022-08-14T10:41:46.485Z,7.63
2022-08-14T10:44:38.806Z,7.32
2022-08-14T10:48:02.592Z,7.05
2022-08-14T10:50:51.614Z,6.18
2022-08-14T10:53:40.417Z,5.80
2022-08-14T10:56:35.185Z,6.03
2022-08-14T10:59:34.892Z,5.15
2022-08-14T11:02:44.895Z,6.57
2022-08-14T11:05:44.452Z,5.72
2022-08-14T11:08:35.897Z,5.50
2022-08-14T11:11:28.470Z,5.55
2022-08-14T11:14:26.601Z,5.60
2022-08-14T11:17:15.919Z,5.50
2022-08-14T11:20:14.118Z,4.90
2022-08-14T11:23:07.250Z,5.35
2022-08-14T11:26:01.057Z,5.35
2022-08-14T11:28:51.607Z,5.30
2022-08-14T11:31:40.890Z,5.07
2022-08-14T11:34:33.806Z,4.75
2022-08-14T11:37:35.214Z,5.80
2022-08-14T11:40:31.239Z,5.18
2022-08-14T11:43:29.675Z,5.60
2022-08-14T11:46:30.716Z,4.72
2022-08-14T11:49:34.242Z,5.15
2022-08-14T11:52:34.195Z,5.10
2022-08-14T11:55:34.512Z,4.78
2022-08-14T11:58:27.788Z,4.97
2022-08-14T12:01:16.981Z,4.80
2022-08-14T12:04:32.377Z,4.50
2022-08-14T12:07:21.954Z,4.05
2022-08-14T12:10:27.145Z,3.97
2022-08-14T12:13:22.341Z,4.00
2022-08-14T12:16:20.620Z,4.25
2022-08-14T12:19:11.038Z,4.50
2022-08-14T12:22:00.118Z,4.30
2022-08-14T12:24:52.662Z,4.63
2022-08-14T12:27:52.719Z,5.40
2022-08-14T12:30:44.385Z,4.93
2022-08-14T12:33:34.556Z,5.60
2022-08-14T12:36:23.118Z,5.00
2022-08-14T12:39:20.898Z,4.95
2022-08-14T12:42:11.918Z,5.15
2022-08-14T12:45:23.995Z,6.63
2022-08-14T12:48:21.202Z,6.20
2022-08-14T12:51:25.209Z,7.68
2022-08-14T12:54:26.079Z,7.82
2022-08-14T12:57:20.351Z,7.95
2022-08-14T13:00:22.850Z,7.38
2022-08-14T13:03:24.688Z,8.35
2022-08-14T13:06:15.720Z,7.15
2022-08-14T13:09:11.101Z,7.35
2022-08-14T13:12:34.933Z,7.70
2022-08-14T13:15:13.564Z,8.80
2022-08-14T13:18:04.850Z,7.93
2022-08-14T13:21:01.030Z,8.20
2022-08-14T13:23:50.941Z,7.60
2022-08-14T13:26:46.531Z,8.10
2022-08-14T13:29:43.927Z,7.13
2022-08-14T13:32:36.614Z,7.90
2022-08-14T13:35:25.476Z,7.10
2022-08-14T13:38:14.305Z,7.85
2022-08-14T13:41:06.290Z,7.00
2022-08-14T13:43:59.774Z,7.80
2022-08-14T13:46:48.944Z,7.43
2022-08-14T13:49:40.462Z,7.10
2022-08-14T13:52:59.498Z,8.75
2022-08-14T13:55:52.130Z,7.07
2022-08-14T13:58:46.906Z,7.88
2022-08-14T14:01:43.343Z,7.50
2022-08-14T14:04:33.423Z,8.07
2022-08-14T14:07:23.402Z,8.07
2022-08-14T14:10:13.684Z,9.05
2022-08-14T14:13:04.567Z,8.55
2022-08-14T14:15:58.340Z,8.20
2022-08-14T14:18:52.164Z,7.60
2022-08-14T14:21:41.989Z,8.18
2022-08-14T14:24:34.632Z,8.38
2022-08-14T14:27:42.671Z,7.72
2022-08-14T14:30:51.967Z,8.80
2022-08-14T14:33:48.016Z,8.82
2022-08-14T14:36:41.727Z,8.60
2022-08-14T14:39:37.435Z,8.80
2022-08-14T14:42:32.433Z,8.90
2022-08-14T14:45:24.571Z,9.15
2022-08-14T14:48:15.571Z,8.48
2022-08-14T14:51:04.619Z,8.75
2022-08-14T14:53:54.611Z,9.40
2022-08-14T14:56:52.038Z,9.25
2022-08-14T14:59:42.612Z,9.02
2022-08-14T15:02:41.406Z,9.65
2022-08-14T15:05:30.649Z,9.57
2022-08-14T15:08:26.934Z,9.43
2022-08-14T15:11:32.291Z,9.93
2022-08-14T15:14:54.677Z,9.63
2022-08-14T15:17:40.861Z,9.50
2022-08-14T15:20:31.396Z,10.20
2022-08-14T15:23:22.417Z,9.13
2022-08-14T15:26:23.284Z,9.88
2022-08-14T15:29:15.407Z,9.77
2022-08-14T15:32:04.124Z,8.93
2022-08-14T15:34:59.290Z,9.23
2022-08-14T15:37:55.973Z,8.75
2022-08-14T15:40:44.662Z,8.30
2022-08-14T15:43:40.212Z,10.30
2022-08-14T15:46:43.042Z,9.30
2022-08-14T15:49:35.001Z,9.38
2022-08-14T15:52:32.376Z,9.73
2022-08-14T15:55:24.189Z,9.35
2022-08-14T15:58:14.328Z,9.20
2022-08-14T16:01:50.643Z,9.70
2022-08-14T16:04:30.818Z,9.15
2022-08-14T16:07:22.241Z,8.45
2022-08-14T16:10:29.338Z,10.95
2022-08-14T16:13:20.402Z,9.55
2022-08-14T16:16:34.940Z,9.07
2022-08-14T16:19:47.824Z,9.23
2022-08-14T16:23:10.503Z,9.25
2022-08-14T16:25:46.974Z,9.80
2022-08-14T16:28:41.393Z,10.50
2022-08-14T16:31:36.238Z,10.30
2022-08-14T16:34:45.643Z,11.05
2022-08-14T16:37:35.391Z,11.35
2022-08-14T16:43:16.142Z,11.70
2022-08-14T16:46:05.883Z,10.90
2022-08-14T16:48:57.711Z,11.40
2022-08-14T16:51:52.798Z,11.30
2022-08-14T16:54:45.195Z,11.43
2022-08-14T16:57:34.251Z,11.23
2022-08-14T17:00:33.033Z,12.48
2022-08-14T17:03:40.864Z,10.88
2022-08-14T17:06:58.462Z,11.73
2022-08-14T17:09:49.550Z,11.93
2022-08-14T17:12:38.066Z,11.52
2022-08-14T17:15:27.729Z,11.25
2022-08-14T17:18:36.308Z,11.95
2022-08-14T17:21:31.773Z,11.80
2022-08-14T17:24:58.415Z,12.48
2022-08-14T17:27:31.328Z,12.90
2022-08-14T17:30:32.276Z,12.45
2022-08-14T17:33:26.421Z,12.15
2022-08-14T17:36:21.180Z,15.40
2022-08-14T17:39:12.226Z,13.05
2022-08-14T17:42:03.616Z,14.50
2022-08-14T17:45:03.296Z,13.52
2022-08-14T17:47:52.425Z,12.75
2022-08-14T17:51:00.221Z,13.07
2022-08-14T17:53:52.609Z,13.85
2022-08-14T17:56:42.345Z,14.55
2022-08-14T17:59:38.428Z,14.07
2022-08-14T18:02:31.912Z,14.30
2022-08-14T18:05:23.420Z,14.10
2022-08-14T18:08:33.008Z,14.27
2022-08-14T18:11:23.832Z,14.73
2022-08-14T18:14:20.736Z,14.07
2022-08-14T18:17:23.308Z,14.00
2022-08-14T18:21:24.007Z,15.05
2022-08-14T18:23:23.344Z,15.05
2022-08-14T18:26:36.114Z,15.88
2022-08-14T18:29:23.542Z,15.88
2022-08-14T18:32:56.451Z,16.40
2022-08-14T18:35:58.712Z,16.90
2022-08-14T18:38:59.848Z,17.85
2022-08-14T18:41:48.972Z,17.42
2022-08-14T18:45:12.816Z,17.88
2022-08-14T18:48:51.093Z,17.92
2022-08-14T18:51:46.135Z,18.42
2022-08-14T18:54:38.724Z,18.85
2022-08-14T18:57:40.562Z,19.67
2022-08-14T19:00:51.094Z,20.40
2022-08-14T19:03:48.888Z,22.80
2022-08-14T19:06:44.610Z,21.40
2022-08-14T19:09:53.310Z,22.60
2022-08-14T19:13:11.927Z,23.83
2022-08-14T19:16:07.601Z,23.60
2022-08-14T19:19:04.106Z,23.42
2022-08-14T19:21:58.019Z,24.13
2022-08-14T19:24:50.165Z,25.27
2022-08-14T19:27:41.124Z,25.17
2022-08-14T19:30:34.886Z,26.33
2022-08-14T19:33:51.922Z,25.65
2022-08-14T19:37:04.329Z,27.88
2022-08-14T19:39:56.423Z,27.40
2022-08-14T19:42:46.749Z,28.10
2022-08-14T19:45:36.439Z,28.38
2022-08-14T19:48:25.507Z,29.13
2022-08-14T19:51:15.777Z,32.00
2022-08-14T19:54:13.279Z,29.70
2022-08-14T19:57:05.644Z,30.52
2022-08-14T20:00:04.659Z,29.73
2022-08-14T20:03:11.912Z,29.90
2022-08-14T20:06:05.590Z,31.20
2022-08-14T20:11:01.368Z,30.23
2022-08-14T20:12:28.678Z,30.80
2022-08-14T20:15:47.284Z,29.88
2022-08-14T20:18:49.440Z,31.70
2022-08-14T20:21:57.986Z,31.23
2022-08-14T20:24:49.919Z,30.80
2022-08-14T20:27:40.355Z,30.38
2022-08-14T20:30:34.028Z,28.67
2022-08-14T20:33:25.111Z,28.75
2022-08-14T20:36:25.935Z,28.95
2022-08-14T20:39:15.905Z,29.42
2022-08-14T20:42:25.864Z,27.45
2022-08-14T20:45:19.987Z,26.90
2022-08-14T20:48:10.112Z,27.48
2022-08-14T20:51:23.853Z,27.20
2022-08-14T20:54:14.681Z,26.95
2022-08-14T20:57:08.102Z,26.15
2022-08-14T20:59:57.589Z,25.55
2022-08-14T21:02:50.792Z,25.88
2022-08-14T21:05:39.513Z,26.35
2022-08-14T21:08:35.546Z,25.13
2022-08-14T21:11:28.192Z,26.73
2022-08-14T21:14:24.773Z,26.52
2022-08-14T21:17:15.280Z,26.58
2022-08-14T21:20:25.626Z,25.80
2022-08-14T21:23:16.168Z,26.95
2022-08-14T21:26:06.085Z,26.70
2022-08-14T21:28:54.611Z,27.02
2022-08-14T21:31:55.897Z,26.92
2022-08-14T21:34:55.294Z,27.35
2022-08-14T21:37:47.881Z,27.20
2022-08-14T21:40:41.537Z,27.90
2022-08-14T21:43:32.426Z,28.48
2022-08-14T21:46:21.256Z,27.85
2022-08-14T21:49:15.633Z,28.45
2022-08-14T21:52:49.723Z,28.35
2022-08-14T21:55:23.276Z,28.10
2022-08-14T21:58:54.505Z,28.42
2022-08-14T22:01:21.684Z,28.40
2022-08-14T22:04:34.462Z,28.45
2022-08-14T22:07:21.348Z,28.98
2022-08-14T22:10:23.050Z,28.40
2022-08-14T22:13:13.397Z,29.65
2022-08-14T22:16:05.480Z,29.25
2022-08-14T22:18:54.713Z,29.77
2022-08-14T22:21:46.129Z,30.02
2022-08-14T22:24:38.706Z,30.25
2022-08-14T22:27:56.348Z,31.73
2022-08-14T22:30:47.260Z,31.92
2022-08-14T22:33:44.287Z,31.70
2022-08-14T22:36:50.337Z,31.42
2022-08-14T22:40:17.523Z,32.25
2022-08-14T22:43:00.226Z,33.03
2022-08-14T22:45:55.079Z,33.58
2022-08-14T22:48:46.707Z,35.05
2022-08-14T22:51:40.466Z,35.25
2022-08-14T22:54:52.437Z,35.88
2022-08-14T22:57:43.469Z,36.15
2022-08-14T23:00:33.830Z,37.53
2022-08-14T23:03:23.000Z,38.85
2022-08-14T23:07:01.995Z,39.47
2022-08-14T23:09:36.255Z,38.70
2022-08-14T23:12:34.808Z,38.10
2022-08-14T23:15:28.996Z,42.08
2022-08-14T23:18:25.417Z,40.80
2022-08-14T23:21:22.089Z,40.58
2022-08-14T23:24:14.258Z,41.33
2022-08-14T23:27:09.093Z,42.50
2022-08-14T23:29:58.009Z,43.95
2022-08-14T23:32:46.953Z,44.70
2022-08-14T23:35:59.739Z,48.38
2022-08-14T23:38:48.538Z,45.45
2022-08-14T23:41:46.932Z,44.88
2022-08-14T23:44:45.762Z,44.38
2022-08-14T23:47:51.654Z,45.15
2022-08-14T23:50:44.530Z,45.20
2022-08-14T23:53:47.407Z,46.80
2022-08-14T23:56:37.243Z,46.33
2022-08-14T23:59:31.656Z,46.35
